Timeline UpdatesTrip UpdatesNews PostsPvt PostsTravel TipsAdmin PostsConv PostsFollowed PostsChat RequestsBlog PostsPNR Posts

Disclaimer
Search
 
 
Thu Oct 2, 2014 03:53:32 ISTHomeTrainsΣChainsAtlasPNRForumGalleryNewsFAQTripsMembersLoginFeedback
No Recent News for this Train
Other Trains in the News **new
Latest...
Change in timings ex - Originating and Terminating Station ex 01.09.2014
Sun Aug 31, 2014 (07:08AM)
⇐ Return Journey: Train# 15484

14083⇒15483/Sikkim Mahananda Express

NO Time-Table Change.
Sep 29 (1:56PM)
Change Departure Station:
Change Arrival Station:
Post a Train Travel TipPost a Train Travel Tip **new
Post a Comment/Question/Picture/VideoPost a Comment/Question/Picture/Video
Pantry/Catering
✓ Pantry Car Avbl
✓ Catering Avbl
RSA - Rake Sharing
Rake/Coach Composition
LOCO-SLR-GS-GS-GS-AB-B1-PC-S11-S10-S9-S8-S7-S6-S5-S4-S3-S2-S1-GS-GS-GS-SLR
Loco
SGUJ WDP-4 (APDJ to PNBE), GZB/MGS WAP-4 (PNBE to DLI)
News    PNR    Forum    Time-Table    Availability    Fare Chart    Map    Arr/Dep History    Trips    Gallery    ΣChains    X/O    Timeline    
Travel Time: 36h 50m    56 halts    Distance: 1653 km    Avg Speed: 44 km/hr
Type: Mail/Express
Zone: NFR/Northeast Frontier
Departs @ 09:50 (Avg 2h 20m late)
Platform# 1
SMTWTFS
Alipur Duar Junction/APDJ 
Arrives @ 22:40 +1 night (Avg 3h 15m late)
Platform# 11
SMTWTFS
Old Delhi Junction/DLI 

56 halts. 292 intermediate Stations between Alipur Duar Junction and Old Delhi Junction

Show ALL intermediate Stations  

#CodeStation NameX/OArrivesAvgDepartsAvgHaltPFDay#KmSpeedElevZoneAddress
1APDJAlipur Duar Junction (3)»  -09:50+2:20110.07053mNFRDist - Alipurduar, West Bengal
2HSAHasimara (3)X  10:20+2:2810:22+2:292m--134.863123mNFRDist - Alipurduar, West Bengal
3DLODalgaon (3)  10:46+2:3310:47+2:351m1160.138 NFRDist : Alipurduar, West Bengal
4BNVBinnaguri (3)  11:01+2:3611:02+2:251m--169.165132mNFRDist : jalpaiguri, West Bengal
5NMZNew Mal Junction (3)  11:43+2:1711:48+2:155m--1113.443161mNFRDist - Jalpaiguri, West Bengal
6SGUJSiliguri Junction (5)X  12:55+2:2213:00+2:135m--1161.212120mNFRDist-Darjeeling Siliguri-734001, West Bengal
7NJPNew Jalpaiguri Junction (8)X  13:35+2:2613:55+2:2920m31168.577114mNFRCity-Siliguri . Dist-Jalpaiguri, West Bengal
8AUBAluabari Road (2)O  14:39+2:3314:41+2:332m21225.2630mNFRDist - uttar Dinajpur, West Bengal
9KNEKishanGanj (3)O  15:10+2:3215:15+2:325m21255.87152mNFRKishanganj, Bihar
10DLKDalkhola (3)X  15:39+2:3815:40+2:401m101284.35844mNFRDalkola, West Bengal
11BOEBarsoi Junction (3)X  16:10+2:4916:12+2:502m--1313.45337mNFRdist- katihar, Bihar
12AZRAzamnagar Road (3)X  16:27+2:4516:28+2:361m--1326.73134mNFRAzamnagar, Bihar
13LAVLabha (2)  17:10+2:5517:11+2:571m11348.41529mNFRDist : Katihar, Bihar
14KIRKatihar Junction (7)X  18:45+2:2919:00+2:2515m51371.44635mNFRKatihar 854105, Bihar
15SMOSemapurX  19:15+2:2719:16+2:271m--1382.96535mECRKatihar, Bihar
16CRRKaragola Road  19:26+2:3519:27+2:371m--1393.67836mECRLachhmipur, Bihar
17KUEKurselaX  19:40+2:4619:41+2:491m--1410.64831mECRNH 31, Bihar
18NNANaugachia (3)X  20:04+2:5720:05+2:571m--1429.16437mECRBhagalpur, Bihar
19THBThana Bihpur Junction (3)  20:20+3:0120:21+3:021m--1445.05139mECRThana Bihpur, Bihar
20NNRNarayanpur (2)X  20:30+2:5620:31+3:051m--1452.75439mECRNarayanpur, Bihar
21PSRPasraha (3)  20:44+3:0220:45+3:071m--1464.35341mECRPasraha, Bihar
22MSKMahes Khunt (2)X  20:59+3:1021:00+3:141m--1476.65737mECRMaheshkhunt, Bihar
23MNEMansi Junction (4)XO  21:11+3:1721:12+3:181m--1487.03343mECRMansi, Bihar
24KGGKhagaria Junction (3)X  21:28+3:1421:29+3:161m--1495.86243mECRKhagaria, Bihar
25SKJSahibpur Kamal Junction (2)  21:41+3:1921:42+3:141m--1508.24241mECRShahpur Kamal, Bihar
26LKNLakhminia (3)X  21:56+3:1621:57+3:171m--1517.93645mECRBegusarai, Bihar
27BGSBegusarai (3)  22:27+3:0122:28+3:011m--1535.72246mECRBegusarai, Bihar
28BJUBarauni Junction (9)X  23:05+2:5223:10+2:545m11549.22849mECRBegusarai, Bihar
29MKAMokama Junction (4)  23:54+3:0923:56+3:102m31569.88848mECRPatna, Bihar
30BKPBakhtiyarpur Junction (5)X  00:26+3:0200:28+3:032m--2613.74851mECRPatna, Bihar
31PNBEPatna Junction (10)X  01:25+2:1901:50+2:2525m42659.13557mECRPatna 800001, Bihar
32DNRDanapur (5)  02:06+2:3602:08+2:362m--2668.59158mECRKhagaul, Bihar
33ARAAra Junction (3)X  02:34+3:0402:36+3:042m--2708.07163mECRarrah( 06182-233411), Bihar
34BXRBuxar (3)X  03:34+2:5603:36+2:522m22776.54767mECRBuxar, Bihar
35MGSMughal Sarai Junction (8)  05:35+2:1505:45+2:2210m42870.44583mECRMughalsarai 232101, Uttar Pradesh
36MZPMirzapur (3)X  07:09+3:0507:10+3:081m--2933.64088mNCRMirzapur, Uttar Pradesh
37BDLVindhyachal (3)  07:21+3:0007:22+3:031m--2940.97788mNCRMirzapur, Uttar Pradesh
38NYNNaini Junction (4)  08:20+3:3708:22+3:382m221015.72498mNCRAllahabad, Uttar Pradesh
39ALDAllahabad Junction (10)XOO  08:40+3:4408:55+3:4215m321022.864100mNCRAllahabad 211003, Uttar Pradesh
40FTPFatehpur (3)  10:44+3:0810:45+3:101m--21139.552120mNCRFatehpur, Uttar Pradesh
41CNBKanpur Central (10)X  12:15+3:2512:25+3:2810m521217.129128mNCRKANPUR-208 001, Uttar Pradesh
42PNKPanki (3)XO  12:49+2:5912:50+3:031m--21228.637129mNCRKANPUR-208 020, Uttar Pradesh
43RURARura (4)  13:43+2:3513:44+2:361m--21261.457137mNCRJhinjhak, Uttar Pradesh
44JJKJhinjhak (3)  14:04+2:3214:05+2:341m321280.570140mNCRAuraiya, Uttar Pradesh
45PHDPhaphund (4)  14:22+2:5014:23+2:511m--21300.363146mNCRdist. Auraiya, Uttar Pradesh
46ULDAchalda (3)X  14:39+2:4314:40+2:491m--21317.165147mNCRDist. Auraiya(05688-1072), Uttar Pradesh
47BNTBharthana (3)X  14:58+2:4214:59+2:471m--21336.652147mNCRBharthana, Uttar Pradesh
48ETWEtawah (5)  15:22+2:5615:23+2:571m221356.574154mNCRDistt. Etawah, Uttar Pradesh
49SKBShikohabad Junction (4)  16:08+3:2916:09+3:311m321411.957166mNCRDistrict Firozabad, Uttar Pradesh
50FZDFirozabad (4)XO  16:30+3:4316:31+3:451m321431.816164mNCRFirozabad, Uttar Pradesh
51TDLTundla Junction (5)XO  17:35+2:5217:45+2:5210m221448.370167mNCRDistt.Firozabad, Uttar Pradesh
52JLSJalesar Road (1)X  18:09+2:4018:10+2:421m121476.255172mNCRMDR 106W, Uttar Pradesh
53HRSHathras Junction (3)X  18:32+3:2318:33+3:231m--21496.382183mNCRMahamaya Nagar(05722-242803), Uttar Pradesh
54ALJNAligarh Junction (4)X  18:55+3:0019:00+3:005m221526.449192mNCRAligarh, Uttar Pradesh
55KRJKhurja Junction (4)XO  19:53+2:2719:58+2:265m--21569.935199mNCRBulandshahr, Uttar Pradesh
56GZBGhaziabad Junction (6)X  21:45+2:3221:47+2:322m321632.648217mNRGhaziabad, Uttar Pradesh
57DSAShahdara Junction (4)  22:04+4822:05+481m--21646.211212mNRCircular Rd, Delhi NCT
58DLIOld Delhi Junction (16)•  22:40+3:15-1121652.5-219mNRNear Chandni Chowk Metro Station, Delhi NCT
Scroll to Top
Scroll to Bottom